Whitney, Texas
Current Conditions -  °F | °C
As of 11:35 PM on Wednesday 17 Dec 2014 (Local Time) from KINJ Reporting Station
Haze Haze  
Wind Chill: 40°   Ceiling: 400
Heat Index: 44°   Visibility: 3mi
Dew Point: 42°   Wind: 8mph
Humidity: 91%   Direction: 50°NE
Pressure: 30.16"   Gusts: NA
Location:  31.95°N, 97.32°W
Report Text: KINJ 180535Z AUTO 05007KT 3SM BR BKN004 OVC012 07/06 A3016 RMK AO2 T00680055
Loading
Personal Weather Stations






























Interactive Weather Map New forecast layout! Learn more

10-Day Weather Forecast

Advertisements
Track Severe Weather on mobile